sensor_id;sensor_type;location;lat;lon;timestamp;P1;durP1;ratioP1;P2;durP2;ratioP2
67090;SDS011;54007;55.818;49.058;2022-09-13T11:51:54;8.43;;;3.00;;
67090;SDS011;54007;55.818;49.058;2022-09-13T11:54:25;8.68;;;3.05;;
67090;SDS011;54007;55.818;49.058;2022-09-13T11:56:48;10.28;;;3.20;;
67090;SDS011;54007;55.818;49.058;2022-09-13T11:59:22;12.15;;;3.67;;
67090;SDS011;54007;55.818;49.058;2022-09-13T12:01:51;10.63;;;3.87;;
67090;SDS011;54007;55.818;49.058;2022-09-13T12:04:28;8.68;;;3.60;;
67090;SDS011;54007;55.818;49.058;2022-09-13T12:07:00;8.03;;;3.80;;
67090;SDS011;54007;55.818;49.058;2022-09-13T12:09:22;8.20;;;3.17;;
67090;SDS011;54007;55.818;49.058;2022-09-13T12:11:51;10.10;;;3.40;;
67090;SDS011;54007;55.818;49.058;2022-09-13T12:14:22;8.03;;;3.10;;
67090;SDS011;54007;55.818;49.058;2022-09-13T12:16:51;7.75;;;3.27;;
67090;SDS011;54007;55.818;49.058;2022-09-13T12:19:15;12.93;;;3.30;;
67090;SDS011;54007;55.818;49.058;2022-09-13T12:21:39;6.33;;;3.37;;
67090;SDS011;54007;55.818;49.058;2022-09-13T12:27:03;9.13;;;3.20;;
67090;SDS011;54007;55.818;49.058;2022-09-13T12:29:35;7.45;;;3.15;;
67090;SDS011;54007;55.818;49.058;2022-09-13T12:32:01;10.72;;;3.52;;
67090;SDS011;54007;55.818;49.058;2022-09-13T12:34:28;8.18;;;3.52;;
67090;SDS011;54007;55.818;49.058;2022-09-13T12:39:51;8.45;;;3.77;;
67090;SDS011;54007;55.818;49.058;2022-09-13T12:42:21;11.25;;;4.03;;
67090;SDS011;54007;55.818;49.058;2022-09-13T12:49:50;10.10;;;4.03;;
67090;SDS011;54007;55.818;49.058;2022-09-13T13:00:16;10.40;;;4.40;;
67090;SDS011;54007;55.818;49.058;2022-09-13T13:02:51;11.48;;;4.67;;
67090;SDS011;54007;55.818;49.058;2022-09-13T13:05:26;10.48;;;4.90;;
67090;SDS011;54007;55.818;49.058;2022-09-13T13:07:52;12.95;;;5.00;;
67090;SDS011;54007;55.818;49.058;2022-09-13T13:10:24;13.27;;;4.77;;
67090;SDS011;54007;55.818;49.058;2022-09-13T13:12:48;12.73;;;4.28;;
67090;SDS011;54007;55.818;49.058;2022-09-13T13:17:44;13.07;;;5.00;;
67090;SDS011;54007;55.818;49.058;2022-09-13T13:23:01;15.03;;;5.72;;
67090;SDS011;54007;55.818;49.058;2022-09-13T13:25:30;10.08;;;5.28;;
67090;SDS011;54007;55.818;49.058;2022-09-13T13:27:54;13.53;;;5.60;;
67090;SDS011;54007;55.818;49.058;2022-09-13T13:30:33;12.90;;;5.97;;
67090;SDS011;54007;55.818;49.058;2022-09-13T13:33:05;12.28;;;4.85;;
67090;SDS011;54007;55.818;49.058;2022-09-13T13:35:30;14.15;;;5.20;;
67090;SDS011;54007;55.818;49.058;2022-09-13T13:37:56;10.40;;;4.73;;
67090;SDS011;54007;55.818;49.058;2022-09-13T13:40:25;10.70;;;5.28;;
67090;SDS011;54007;55.818;49.058;2022-09-13T13:42:47;20.10;;;5.58;;
67090;SDS011;54007;55.818;49.058;2022-09-13T13:45:21;8.40;;;4.23;;
67090;SDS011;54007;55.818;49.058;2022-09-13T13:47:51;11.38;;;4.00;;
67090;SDS011;54007;55.818;49.058;2022-09-13T13:52:37;11.57;;;4.30;;
67090;SDS011;54007;55.818;49.058;2022-09-13T13:55:22;11.85;;;4.35;;
67090;SDS011;54007;55.818;49.058;2022-09-13T13:57:39;12.88;;;4.65;;
67090;SDS011;54007;55.818;49.058;2022-09-13T14:00:14;12.05;;;4.42;;
67090;SDS011;54007;55.818;49.058;2022-09-13T14:05:19;10.43;;;3.80;;
67090;SDS011;54007;55.818;49.058;2022-09-13T14:10:23;13.93;;;4.50;;
67090;SDS011;54007;55.818;49.058;2022-09-13T14:12:54;11.73;;;4.10;;
67090;SDS011;54007;55.818;49.058;2022-09-13T14:15:18;10.38;;;3.80;;
67090;SDS011;54007;55.818;49.058;2022-09-13T14:20:25;15.08;;;4.83;;
67090;SDS011;54007;55.818;49.058;2022-09-13T14:23:09;13.93;;;4.33;;
67090;SDS011;54007;55.818;49.058;2022-09-13T14:27:43;9.77;;;4.00;;
67090;SDS011;54007;55.818;49.058;2022-09-13T14:30:19;11.22;;;4.15;;
67090;SDS011;54007;55.818;49.058;2022-09-13T14:32:46;14.73;;;4.03;;
67090;SDS011;54007;55.818;49.058;2022-09-13T14:35:28;11.23;;;4.20;;
67090;SDS011;54007;55.818;49.058;2022-09-13T14:37:53;12.65;;;5.17;;
67090;SDS011;54007;55.818;49.058;2022-09-13T14:40:25;16.20;;;5.30;;
67090;SDS011;54007;55.818;49.058;2022-09-13T14:42:51;13.27;;;6.50;;
67090;SDS011;54007;55.818;49.058;2022-09-13T14:45:21;14.07;;;5.33;;
67090;SDS011;54007;55.818;49.058;2022-09-13T14:47:52;11.63;;;5.15;;
67090;SDS011;54007;55.818;49.058;2022-09-13T14:50:22;16.97;;;5.47;;
67090;SDS011;54007;55.818;49.058;2022-09-13T14:52:47;13.97;;;5.90;;
67090;SDS011;54007;55.818;49.058;2022-09-13T14:55:12;12.10;;;5.50;;
67090;SDS011;54007;55.818;49.058;2022-09-13T14:57:38;22.42;;;5.87;;
67090;SDS011;54007;55.818;49.058;2022-09-13T15:00:14;15.57;;;4.70;;
67090;SDS011;54007;55.818;49.058;2022-09-13T15:02:29;16.70;;;4.42;;
67090;SDS011;54007;55.818;49.058;2022-09-13T15:04:56;13.33;;;5.10;;
67090;SDS011;54007;55.818;49.058;2022-09-13T15:09:46;10.88;;;4.87;;
67090;SDS011;54007;55.818;49.058;2022-09-13T15:12:23;14.23;;;4.37;;
67090;SDS011;54007;55.818;49.058;2022-09-13T15:14:47;11.10;;;4.10;;
67090;SDS011;54007;55.818;49.058;2022-09-13T15:17:13;11.38;;;4.20;;
67090;SDS011;54007;55.818;49.058;2022-09-13T15:19:40;13.97;;;4.40;;
67090;SDS011;54007;55.818;49.058;2022-09-13T15:22:10;16.05;;;4.70;;
67090;SDS011;54007;55.818;49.058;2022-09-13T15:24:32;11.17;;;4.67;;
67090;SDS011;54007;55.818;49.058;2022-09-13T15:27:15;10.30;;;4.33;;
67090;SDS011;54007;55.818;49.058;2022-09-13T15:29:25;11.60;;;4.40;;
67090;SDS011;54007;55.818;49.058;2022-09-13T15:31:51;15.50;;;5.40;;
67090;SDS011;54007;55.818;49.058;2022-09-13T15:36:43;10.30;;;4.10;;
67090;SDS011;54007;55.818;49.058;2022-09-13T15:39:13;10.30;;;3.60;;
67090;SDS011;54007;55.818;49.058;2022-09-13T15:41:38;7.87;;;3.80;;
67090;SDS011;54007;55.818;49.058;2022-09-13T15:44:07;8.65;;;4.15;;
67090;SDS011;54007;55.818;49.058;2022-09-13T15:46:33;10.50;;;3.73;;
67090;SDS011;54007;55.818;49.058;2022-09-13T15:48:59;8.83;;;3.80;;
67090;SDS011;54007;55.818;49.058;2022-09-13T15:51:24;11.38;;;4.10;;
67090;SDS011;54007;55.818;49.058;2022-09-13T15:53:49;10.53;;;4.20;;
67090;SDS011;54007;55.818;49.058;2022-09-13T15:56:30;12.18;;;3.77;;
67090;SDS011;54007;55.818;49.058;2022-09-13T15:58:44;10.58;;;4.67;;
67090;SDS011;54007;55.818;49.058;2022-09-13T16:01:14;12.67;;;4.10;;
67090;SDS011;54007;55.818;49.058;2022-09-13T16:03:40;9.03;;;4.08;;
67090;SDS011;54007;55.818;49.058;2022-09-13T16:06:06;9.03;;;3.50;;
67090;SDS011;54007;55.818;49.058;2022-09-13T16:08:32;12.13;;;3.60;;
67090;SDS011;54007;55.818;49.058;2022-09-13T16:10:58;9.23;;;4.58;;
67090;SDS011;54007;55.818;49.058;2022-09-13T16:13:23;9.87;;;3.87;;
67090;SDS011;54007;55.818;49.058;2022-09-13T16:15:49;7.28;;;3.80;;
67090;SDS011;54007;55.818;49.058;2022-09-13T16:18:15;9.00;;;3.70;;
67090;SDS011;54007;55.818;49.058;2022-09-13T16:20:42;8.53;;;3.20;;
67090;SDS011;54007;55.818;49.058;2022-09-13T16:23:08;9.33;;;3.87;;
67090;SDS011;54007;55.818;49.058;2022-09-13T16:25:33;10.43;;;3.98;;
67090;SDS011;54007;55.818;49.058;2022-09-13T16:27:59;9.35;;;3.90;;
67090;SDS011;54007;55.818;49.058;2022-09-13T16:30:24;8.33;;;3.70;;
67090;SDS011;54007;55.818;49.058;2022-09-13T16:32:50;9.47;;;3.80;;
67090;SDS011;54007;55.818;49.058;2022-09-13T16:35:16;7.80;;;3.80;;
67090;SDS011;54007;55.818;49.058;2022-09-13T16:37:42;11.43;;;4.30;;
67090;SDS011;54007;55.818;49.058;2022-09-13T16:40:08;8.75;;;4.17;;
67090;SDS011;54007;55.818;49.058;2022-09-13T16:42:34;8.95;;;4.10;;
67090;SDS011;54007;55.818;49.058;2022-09-13T16:45:00;9.08;;;4.50;;
67090;SDS011;54007;55.818;49.058;2022-09-13T16:47:25;10.85;;;4.78;;
67090;SDS011;54007;55.818;49.058;2022-09-13T16:49:51;9.40;;;4.50;;
67090;SDS011;54007;55.818;49.058;2022-09-13T16:52:17;12.87;;;4.60;;
67090;SDS011;54007;55.818;49.058;2022-09-13T16:54:43;10.32;;;4.90;;
67090;SDS011;54007;55.818;49.058;2022-09-13T16:57:09;12.90;;;5.05;;
67090;SDS011;54007;55.818;49.058;2022-09-13T16:59:35;11.85;;;5.53;;
67090;SDS011;54007;55.818;49.058;2022-09-13T17:02:00;16.00;;;6.30;;
67090;SDS011;54007;55.818;49.058;2022-09-13T17:04:26;18.47;;;8.00;;
67090;SDS011;54007;55.818;49.058;2022-09-13T17:06:52;16.35;;;7.10;;
67090;SDS011;54007;55.818;49.058;2022-09-13T17:09:21;21.80;;;9.68;;
67090;SDS011;54007;55.818;49.058;2022-09-13T17:11:44;20.80;;;9.90;;
67090;SDS011;54007;55.818;49.058;2022-09-13T17:14:10;22.93;;;10.85;;
67090;SDS011;54007;55.818;49.058;2022-09-13T17:16:40;21.55;;;10.80;;
67090;SDS011;54007;55.818;49.058;2022-09-13T17:19:05;21.73;;;11.80;;
67090;SDS011;54007;55.818;49.058;2022-09-13T17:21:30;21.48;;;11.12;;
67090;SDS011;54007;55.818;49.058;2022-09-13T17:23:56;20.82;;;11.35;;
67090;SDS011;54007;55.818;49.058;2022-09-13T17:26:22;25.43;;;12.45;;
67090;SDS011;54007;55.818;49.058;2022-09-13T17:28:48;23.80;;;12.58;;
67090;SDS011;54007;55.818;49.058;2022-09-13T17:31:13;22.67;;;13.57;;
67090;SDS011;54007;55.818;49.058;2022-09-13T17:33:39;20.37;;;12.75;;
67090;SDS011;54007;55.818;49.058;2022-09-13T17:36:06;21.42;;;13.83;;
67090;SDS011;54007;55.818;49.058;2022-09-13T17:38:31;22.50;;;14.38;;
67090;SDS011;54007;55.818;49.058;2022-09-13T17:40:58;24.37;;;14.60;;
67090;SDS011;54007;55.818;49.058;2022-09-13T17:43:23;23.73;;;14.65;;
67090;SDS011;54007;55.818;49.058;2022-09-13T17:45:49;23.90;;;14.47;;
67090;SDS011;54007;55.818;49.058;2022-09-13T17:48:15;23.90;;;14.65;;
67090;SDS011;54007;55.818;49.058;2022-09-13T17:50:41;24.07;;;13.25;;
67090;SDS011;54007;55.818;49.058;2022-09-13T17:53:07;22.20;;;12.77;;
67090;SDS011;54007;55.818;49.058;2022-09-13T17:55:33;23.25;;;13.62;;
67090;SDS011;54007;55.818;49.058;2022-09-13T17:57:58;21.53;;;11.27;;
67090;SDS011;54007;55.818;49.058;2022-09-13T18:00:24;19.32;;;11.00;;
67090;SDS011;54007;55.818;49.058;2022-09-13T18:02:50;21.45;;;9.75;;
67090;SDS011;54007;55.818;49.058;2022-09-13T18:05:16;14.30;;;8.50;;
67090;SDS011;54007;55.818;49.058;2022-09-13T18:07:42;15.40;;;9.38;;
67090;SDS011;54007;55.818;49.058;2022-09-13T18:10:08;15.18;;;9.28;;
67090;SDS011;54007;55.818;49.058;2022-09-13T18:12:34;13.33;;;8.17;;
67090;SDS011;54007;55.818;49.058;2022-09-13T18:15:01;16.07;;;7.50;;
67090;SDS011;54007;55.818;49.058;2022-09-13T18:17:30;12.88;;;6.83;;
